createdAt,value
2023-04-22T00:00:17.081Z,101801.38
2023-04-22T00:02:45.793Z,101800.66
2023-04-22T00:05:17.022Z,101805.16
2023-04-22T00:07:47.405Z,101800.97
2023-04-22T00:10:15.561Z,101794.88
2023-04-22T00:12:43.439Z,101796.59
2023-04-22T00:15:13.469Z,101791.50
2023-04-22T00:17:42.774Z,101792.53
2023-04-22T00:20:12.656Z,101789.28
2023-04-22T00:22:40.642Z,101789.44
2023-04-22T00:25:09.564Z,101790.31
2023-04-22T00:27:37.778Z,101784.34
2023-04-22T00:30:06.655Z,101785.38
2023-04-22T00:32:36.027Z,101773.47
2023-04-22T00:35:04.038Z,101775.38
2023-04-22T00:37:31.968Z,101774.56
2023-04-22T00:39:59.825Z,101770.50
2023-04-22T00:42:28.342Z,101768.94
2023-04-22T00:44:56.812Z,101770.91
2023-04-22T00:47:26.981Z,101765.91
2023-04-22T00:49:56.395Z,101765.06
2023-04-22T00:52:24.227Z,101769.47
2023-04-22T00:54:53.168Z,101771.34
2023-04-22T00:57:21.637Z,101763.66
2023-04-22T00:59:50.542Z,101761.13
2023-04-22T01:02:19.286Z,101761.16
2023-04-22T01:04:48.098Z,101761.31
2023-04-22T01:07:17.428Z,101751.94
2023-04-22T01:09:45.278Z,101754.63
2023-04-22T01:12:13.165Z,101754.63
2023-04-22T01:14:41.323Z,101753.00
2023-04-22T01:17:10.674Z,101748.72
2023-04-22T01:19:38.870Z,101746.41
2023-04-22T01:22:08.930Z,101749.16
2023-04-22T01:24:38.752Z,101750.06
2023-04-22T01:27:06.612Z,101744.94
2023-04-22T01:29:34.712Z,101739.84
2023-04-22T01:32:04.053Z,101736.47
2023-04-22T01:34:32.439Z,101740.03
2023-04-22T01:37:00.397Z,101743.47
2023-04-22T01:39:28.712Z,101734.03
2023-04-22T01:41:58.576Z,101736.63
2023-04-22T01:44:26.930Z,101728.84
2023-04-22T01:46:55.252Z,101734.94
2023-04-22T01:49:23.252Z,101727.25
2023-04-22T01:51:51.078Z,101722.25
2023-04-22T01:54:19.066Z,101725.03
2023-04-22T01:56:51.946Z,101730.38
2023-04-22T01:59:21.513Z,101727.03
2023-04-22T02:01:49.615Z,101719.41
2023-04-22T02:04:17.683Z,101714.16
2023-04-22T02:06:45.596Z,101721.03
2023-04-22T02:09:13.504Z,101718.44
2023-04-22T02:11:41.402Z,101719.41
2023-04-22T02:14:09.391Z,101713.34
2023-04-22T02:16:38.671Z,101713.44
2023-04-22T02:19:06.596Z,101709.13
2023-04-22T02:21:34.854Z,101709.94
2023-04-22T02:24:02.969Z,101710.88
2023-04-22T02:26:30.877Z,101703.22
2023-04-22T02:29:01.594Z,101699.00
2023-04-22T02:31:29.618Z,101706.06
2023-04-22T02:33:58.971Z,101706.16
2023-04-22T02:36:27.781Z,101707.94
2023-04-22T02:38:55.738Z,101695.03
2023-04-22T02:41:23.672Z,101698.56
2023-04-22T02:43:51.562Z,101694.38
2023-04-22T02:46:19.600Z,101696.97
2023-04-22T02:48:48.750Z,101693.59
2023-04-22T02:51:18.014Z,101687.66
2023-04-22T02:53:45.938Z,101685.94
2023-04-22T02:56:13.837Z,101685.19
2023-04-22T02:58:41.827Z,101681.00
2023-04-22T03:01:09.765Z,101680.19
2023-04-22T03:03:37.963Z,101681.97
2023-04-22T03:06:06.205Z,101676.94
2023-04-22T03:08:35.559Z,101676.34
2023-04-22T03:11:03.426Z,101678.13
2023-04-22T03:13:31.241Z,101673.88
2023-04-22T03:15:59.298Z,101675.78
2023-04-22T03:18:27.297Z,101679.31
2023-04-22T03:20:55.285Z,101673.47
2023-04-22T03:23:23.237Z,101669.09
2023-04-22T03:25:52.477Z,101668.09
2023-04-22T03:28:20.377Z,101666.25
2023-04-22T03:30:48.679Z,101659.34
2023-04-22T03:33:16.750Z,101656.72
2023-04-22T03:35:44.838Z,101657.59
2023-04-22T03:38:12.761Z,101659.25
2023-04-22T03:40:41.118Z,101657.59
2023-04-22T03:43:10.774Z,101649.75
2023-04-22T03:45:38.793Z,101655.00
2023-04-22T03:48:07.117Z,101655.09
2023-04-22T03:50:35.093Z,101661.91
2023-04-22T03:53:03.042Z,101654.09
2023-04-22T03:55:30.854Z,101657.34
2023-04-22T03:57:58.915Z,101660.78
2023-04-22T04:00:30.588Z,101650.34
2023-04-22T04:02:58.647Z,101654.53
2023-04-22T04:05:27.080Z,101653.41
2023-04-22T04:07:55.373Z,101645.28
2023-04-22T04:10:23.400Z,101642.16
2023-04-22T04:12:51.372Z,101656.56
2023-04-22T04:15:21.366Z,101656.34
2023-04-22T04:17:50.806Z,101647.97
2023-04-22T04:20:18.826Z,101644.81
2023-04-22T04:22:46.842Z,101645.28
2023-04-22T04:25:14.759Z,101647.81
2023-04-22T04:27:42.702Z,101639.63
2023-04-22T04:30:11.447Z,101642.78
2023-04-22T04:32:39.997Z,101643.34
2023-04-22T04:35:12.990Z,101642.06
2023-04-22T04:37:40.914Z,101650.72
2023-04-22T04:40:12.262Z,101652.06
2023-04-22T04:42:40.219Z,101645.94
2023-04-22T04:45:10.344Z,101642.34
2023-04-22T04:47:38.203Z,101645.34
2023-04-22T04:50:07.027Z,101638.16
2023-04-22T04:52:36.341Z,101644.75
2023-04-22T04:55:04.351Z,101648.91
2023-04-22T04:57:32.273Z,101641.97
2023-04-22T05:00:00.587Z,101640.84
2023-04-22T05:02:28.630Z,101642.38
2023-04-22T05:04:56.921Z,101640.34
2023-04-22T05:07:24.952Z,101639.09
2023-04-22T05:09:54.225Z,101636.19
2023-04-22T05:12:22.119Z,101644.56
2023-04-22T05:14:50.101Z,101644.19
2023-04-22T05:17:18.060Z,101642.03
2023-04-22T05:19:46.110Z,101636.41
2023-04-22T05:22:14.039Z,101629.88
2023-04-22T05:24:41.970Z,101628.31
2023-04-22T05:27:11.432Z,101629.31
2023-04-22T05:29:39.526Z,101627.81
2023-04-22T05:32:08.537Z,101621.38
2023-04-22T05:34:36.699Z,101613.56
2023-04-22T05:37:05.550Z,101611.53
2023-04-22T05:39:33.650Z,101610.06
2023-04-22T05:42:01.941Z,101612.81
2023-04-22T05:44:31.133Z,101600.88
2023-04-22T05:46:58.992Z,101601.47
2023-04-22T05:49:26.835Z,101600.50
2023-04-22T05:51:54.787Z,101593.28
2023-04-22T05:54:22.659Z,101590.50
2023-04-22T05:56:50.720Z,101598.28
2023-04-22T05:59:19.687Z,101592.91
2023-04-22T06:01:51.166Z,101591.78
2023-04-22T06:04:20.228Z,101592.03
2023-04-22T06:06:48.540Z,101579.22
2023-04-22T06:09:16.412Z,101586.00
2023-04-22T06:11:44.257Z,101580.41
2023-04-22T06:14:13.116Z,101572.53
2023-04-22T06:16:41.199Z,101567.75
2023-04-22T06:19:10.508Z,101569.78
2023-04-22T06:21:40.498Z,101565.03
2023-04-22T06:24:10.271Z,101568.22
2023-04-22T06:26:38.316Z,101564.16
2023-04-22T06:29:06.666Z,101565.03
2023-04-22T06:31:34.814Z,101566.53
2023-04-22T06:34:02.776Z,101557.25
2023-04-22T06:36:33.105Z,101557.31
2023-04-22T06:39:01.143Z,101547.19
2023-04-22T06:41:29.065Z,101553.88
2023-04-22T06:43:56.948Z,101556.63
2023-04-22T06:46:24.945Z,101546.84
2023-04-22T06:48:52.787Z,101543.13
2023-04-22T06:51:20.836Z,101531.59
2023-04-22T06:53:50.175Z,101536.59
2023-04-22T06:56:18.137Z,101531.78
2023-04-22T06:58:46.032Z,101522.53
2023-04-22T07:01:13.920Z,101521.56
2023-04-22T07:03:41.909Z,101522.44
2023-04-22T07:06:10.774Z,101535.16
2023-04-22T07:08:38.789Z,101530.03
2023-04-22T07:11:08.112Z,101523.47
2023-04-22T07:13:36.066Z,101515.44
2023-04-22T07:16:04.106Z,101516.16
2023-04-22T07:18:32.170Z,101517.84
2023-04-22T07:21:00.118Z,101508.97
2023-04-22T07:23:28.152Z,101508.69
2023-04-22T07:25:56.137Z,101506.09
2023-04-22T07:28:25.538Z,101509.13
2023-04-22T07:30:55.722Z,101502.63
2023-04-22T07:33:23.659Z,101497.72
2023-04-22T07:35:51.515Z,101502.09
2023-04-22T07:38:19.488Z,101498.09
2023-04-22T07:40:47.440Z,101492.94
2023-04-22T07:43:15.296Z,101486.25
2023-04-22T07:45:44.890Z,101480.75
2023-04-22T07:48:12.808Z,101487.09
2023-04-22T07:50:40.997Z,101479.19
2023-04-22T07:53:10.784Z,101477.28
2023-04-22T07:55:38.777Z,101472.72
2023-04-22T07:58:06.880Z,101476.34
2023-04-22T08:00:35.400Z,101470.69
2023-04-22T08:03:05.914Z,101469.38
2023-04-22T08:05:35.996Z,101462.66
2023-04-22T08:08:03.933Z,101466.63
2023-04-22T08:10:31.875Z,101459.75
2023-04-22T08:12:59.831Z,101457.13
2023-04-22T08:15:27.775Z,101455.41
2023-04-22T08:17:55.740Z,101454.47
2023-04-22T08:20:25.684Z,101445.59
2023-04-22T08:22:58.197Z,101451.09
2023-04-22T08:25:26.529Z,101455.41
2023-04-22T08:27:54.575Z,101449.28
2023-04-22T08:30:22.639Z,101445.94
2023-04-22T08:32:53.091Z,101445.94
2023-04-22T08:35:20.843Z,101445.94
2023-04-22T08:37:50.127Z,101441.66
2023-04-22T08:40:17.958Z,101434.00
2023-04-22T08:42:46.124Z,101432.38
2023-04-22T08:45:15.042Z,101434.41
2023-04-22T08:47:44.387Z,101430.59
2023-04-22T08:50:12.852Z,101430.09
2023-04-22T08:52:41.055Z,101430.09
2023-04-22T08:55:10.879Z,101417.53
2023-04-22T08:57:40.371Z,101418.34
2023-04-22T09:00:10.055Z,101422.94
2023-04-22T09:02:39.494Z,101410.16
2023-04-22T09:05:09.651Z,101408.78
2023-04-22T09:07:38.322Z,101406.44
2023-04-22T09:10:08.391Z,101399.88
2023-04-22T09:12:38.598Z,101395.97
2023-04-22T09:15:08.804Z,101391.72
2023-04-22T09:17:38.418Z,101392.44
2023-04-22T09:20:08.841Z,101393.00
2023-04-22T09:22:39.967Z,101382.91
2023-04-22T09:25:16.202Z,101390.16
2023-04-22T09:27:49.751Z,101392.13
2023-04-22T09:30:20.013Z,101383.53
2023-04-22T09:32:55.797Z,101381.19
2023-04-22T09:35:31.137Z,101375.63
2023-04-22T09:38:00.484Z,101374.91
2023-04-22T09:40:29.742Z,101368.50
2023-04-22T09:43:03.541Z,101372.72
2023-04-22T09:45:33.417Z,101367.88
2023-04-22T09:48:03.318Z,101363.88
2023-04-22T09:50:31.331Z,101356.19
2023-04-22T09:53:01.242Z,101357.44
2023-04-22T09:55:31.150Z,101356.31
2023-04-22T09:58:07.348Z,101344.88
2023-04-22T10:00:37.833Z,101341.38
2023-04-22T10:03:08.165Z,101346.09
2023-04-22T10:05:38.668Z,101340.78
2023-04-22T10:08:07.759Z,101329.72
2023-04-22T10:10:36.472Z,101329.69
2023-04-22T10:13:07.102Z,101321.81
2023-04-22T10:15:37.718Z,101324.31
2023-04-22T10:18:09.706Z,101319.00
2023-04-22T10:20:39.085Z,101314.94
2023-04-22T10:23:08.152Z,101316.13
2023-04-22T10:25:36.005Z,101308.25
2023-04-22T10:28:06.708Z,101308.69
2023-04-22T10:30:36.723Z,101301.91
2023-04-22T10:33:37.300Z,101305.84
2023-04-22T10:36:12.400Z,101293.06
2023-04-22T10:38:42.089Z,101295.25
2023-04-22T10:41:15.423Z,101290.00
2023-04-22T10:43:46.291Z,101290.31
2023-04-22T10:46:52.152Z,101282.97
2023-04-22T10:49:21.810Z,101281.91
2023-04-22T10:51:51.110Z,101278.84
2023-04-22T10:54:56.550Z,101270.59
2023-04-22T10:57:31.192Z,101263.25
2023-04-22T11:00:01.294Z,101270.69
2023-04-22T11:02:29.396Z,101264.97
2023-04-22T11:05:23.436Z,101265.28
2023-04-22T11:07:55.808Z,101253.91
2023-04-22T11:10:33.963Z,101258.59
2023-04-22T11:13:02.439Z,101247.75
2023-04-22T11:15:32.509Z,101242.22
2023-04-22T11:18:00.633Z,101243.66
2023-04-22T11:20:29.780Z,101236.41
2023-04-22T11:22:58.920Z,101233.19
2023-04-22T11:25:27.636Z,101228.19
2023-04-22T11:27:56.249Z,101233.50
2023-04-22T11:30:26.397Z,101228.53
2023-04-22T11:32:58.848Z,101227.41
2023-04-22T11:35:29.040Z,101229.75
2023-04-22T11:37:58.738Z,101220.63
2023-04-22T11:40:32.117Z,101221.25
2023-04-22T11:43:03.463Z,101214.28
2023-04-22T11:45:33.431Z,101213.97
2023-04-22T11:48:03.974Z,101215.00
2023-04-22T11:50:32.393Z,101209.28
2023-04-22T11:53:02.612Z,101204.88
2023-04-22T11:55:33.087Z,101194.81
2023-04-22T11:58:01.675Z,101203.59
2023-04-22T12:00:33.108Z,101193.28
2023-04-22T12:03:03.760Z,101198.19
2023-04-22T12:05:40.190Z,101193.94
2023-04-22T12:08:09.916Z,101186.63
2023-04-22T12:10:42.735Z,101182.34
2023-04-22T12:13:11.041Z,101175.88
2023-04-22T12:15:44.040Z,101181.03
2023-04-22T12:18:13.688Z,101166.59
2023-04-22T12:20:42.605Z,101172.69
2023-04-22T12:23:15.437Z,101174.63
2023-04-22T12:25:44.395Z,101167.94
2023-04-22T12:28:13.128Z,101162.13
2023-04-22T12:30:41.120Z,101163.63
2023-04-22T12:33:09.483Z,101157.13
2023-04-22T12:35:39.034Z,101150.84
2023-04-22T12:38:06.894Z,101150.91
2023-04-22T12:40:34.779Z,101150.56
2023-04-22T12:43:06.173Z,101142.13
2023-04-22T12:45:34.157Z,101157.53
2023-04-22T12:48:02.180Z,101155.69
2023-04-22T12:50:30.273Z,101142.91
2023-04-22T12:52:59.567Z,101149.09
2023-04-22T12:55:28.246Z,101138.94
2023-04-22T12:57:56.791Z,101134.16
2023-04-22T13:00:25.506Z,101141.31
2023-04-22T13:02:53.559Z,101132.03
2023-04-22T13:05:21.755Z,101131.63
2023-04-22T13:07:56.429Z,101126.03
2023-04-22T13:10:35.821Z,101132.81
2023-04-22T13:13:16.666Z,101132.13
2023-04-22T13:15:46.053Z,101133.97
2023-04-22T13:18:14.016Z,101132.81
2023-04-22T13:20:42.716Z,101124.31
2023-04-22T13:23:10.886Z,101114.78
2023-04-22T13:25:40.349Z,101112.34
2023-04-22T13:28:08.255Z,101113.50
2023-04-22T13:30:36.124Z,101115.81
2023-04-22T13:33:04.094Z,101120.16
2023-04-22T13:35:32.743Z,101118.97
2023-04-22T13:38:03.173Z,101118.78
2023-04-22T13:40:31.012Z,101115.81
2023-04-22T13:43:00.382Z,101113.81
2023-04-22T13:45:28.506Z,101110.53
2023-04-22T13:51:14.086Z,101100.69
2023-04-22T13:53:42.041Z,101097.38
2023-04-22T13:56:09.997Z,101092.38
2023-04-22T13:58:37.884Z,101075.25
2023-04-22T14:01:09.318Z,101083.81
2023-04-22T14:03:38.004Z,101081.97
2023-04-22T14:06:06.285Z,101075.66
2023-04-22T14:08:35.669Z,101071.78
2023-04-22T14:11:04.050Z,101074.44
2023-04-22T14:13:32.292Z,101065.47
2023-04-22T14:16:00.616Z,101073.34
2023-04-22T14:18:28.897Z,101069.03
2023-04-22T14:20:57.100Z,101068.00
2023-04-22T14:23:24.966Z,101064.03
2023-04-22T14:25:54.389Z,101060.16
2023-04-22T14:28:22.429Z,101055.38
2023-04-22T14:30:50.424Z,101046.84
2023-04-22T14:33:18.369Z,101054.38
2023-04-22T14:35:46.337Z,101054.50
2023-04-22T14:38:14.479Z,101047.06
2023-04-22T14:40:42.447Z,101047.06
2023-04-22T14:43:11.696Z,101037.25
2023-04-22T14:45:40.809Z,101032.56
2023-04-22T14:48:08.823Z,101031.25
2023-04-22T14:50:37.154Z,101030.41
2023-04-22T14:53:05.012Z,101021.25
2023-04-22T14:55:35.394Z,101020.47
2023-04-22T14:58:03.382Z,101011.47
2023-04-22T15:00:32.689Z,101018.97
2023-04-22T15:03:00.895Z,101015.97
2023-04-22T15:05:28.881Z,101015.63
2023-04-22T15:07:57.873Z,101009.66
2023-04-22T15:10:26.334Z,101015.16
2023-04-22T15:12:55.001Z,101009.28
2023-04-22T15:15:22.885Z,101006.13
2023-04-22T15:17:52.591Z,101005.97
2023-04-22T15:20:20.584Z,101001.47
2023-04-22T15:22:52.076Z,101002.63
2023-04-22T15:25:19.981Z,101001.00
2023-04-22T15:27:48.713Z,100996.84
2023-04-22T15:30:16.778Z,100996.84
2023-04-22T15:32:44.679Z,100993.50
2023-04-22T15:35:14.200Z,100987.34
2023-04-22T15:37:42.071Z,100990.50
2023-04-22T15:40:10.521Z,100997.84
2023-04-22T15:42:38.441Z,101000.00
2023-04-22T15:45:07.482Z,100985.84
2023-04-22T15:47:36.755Z,100984.88
2023-04-22T15:50:08.938Z,100984.69
2023-04-22T15:52:39.757Z,100984.88
2023-04-22T15:55:09.336Z,100978.34
2023-04-22T15:57:37.457Z,100974.38
2023-04-22T16:00:11.995Z,100975.22
2023-04-22T16:02:42.389Z,100970.56
2023-04-22T16:05:11.381Z,100968.88
2023-04-22T16:07:41.012Z,100961.59
2023-04-22T16:10:10.378Z,100958.56
2023-04-22T16:12:38.343Z,100962.41
2023-04-22T16:15:07.949Z,100958.25
2023-04-22T16:17:36.141Z,100952.44
2023-04-22T16:20:05.893Z,100953.44
2023-04-22T16:22:33.915Z,100948.44
2023-04-22T16:25:03.199Z,100944.47
2023-04-22T16:27:31.834Z,100947.44
2023-04-22T16:29:59.930Z,100950.28
2023-04-22T16:32:27.937Z,100940.78
2023-04-22T16:34:55.942Z,100949.25
2023-04-22T16:37:24.150Z,100944.41
2023-04-22T16:39:52.231Z,100941.53
2023-04-22T16:42:21.580Z,100939.84
2023-04-22T16:44:49.579Z,100951.44
2023-04-22T16:47:17.468Z,100942.44
2023-04-22T16:49:45.427Z,100932.78
2023-04-22T16:52:13.361Z,100931.94
2023-04-22T16:54:42.514Z,100943.50
2023-04-22T16:57:11.525Z,100941.81
2023-04-22T16:59:41.214Z,100947.09
2023-04-22T17:02:10.193Z,100937.13
2023-04-22T17:04:38.612Z,100928.38
2023-04-22T17:07:06.656Z,100929.63
2023-04-22T17:09:34.568Z,100932.69
2023-04-22T17:12:02.664Z,100933.75
2023-04-22T17:14:31.076Z,100935.34
2023-04-22T17:17:00.441Z,100931.94
2023-04-22T17:19:28.432Z,100929.91
2023-04-22T17:21:56.609Z,100932.66
2023-04-22T17:24:24.984Z,100933.56
2023-04-22T17:26:52.973Z,100927.19
2023-04-22T17:29:21.799Z,100928.94
2023-04-22T17:31:50.012Z,100937.16
2023-04-22T17:34:19.472Z,100938.19
2023-04-22T17:36:47.410Z,100937.53
2023-04-22T17:39:15.382Z,100940.41
2023-04-22T17:41:43.270Z,100948.38
2023-04-22T17:44:11.350Z,100946.25
2023-04-22T17:46:39.282Z,100949.94
2023-04-22T17:49:07.258Z,100950.25
2023-04-22T17:51:36.656Z,100939.44
2023-04-22T17:54:05.447Z,100950.06
2023-04-22T17:56:33.417Z,100936.59
2023-04-22T17:59:01.361Z,100936.63
2023-04-22T18:01:30.459Z,100939.28
2023-04-22T18:03:59.410Z,100942.47
2023-04-22T18:06:28.995Z,100949.31
2023-04-22T18:08:58.330Z,100945.16
2023-04-22T18:11:27.921Z,100941.53
2023-04-22T18:13:56.014Z,100938.22
2023-04-22T18:16:23.966Z,100934.44
2023-04-22T18:18:51.889Z,100939.53
2023-04-22T18:21:19.789Z,100937.03
2023-04-22T18:23:47.741Z,100934.50
2023-04-22T18:26:17.139Z,100938.66
2023-04-22T18:28:45.085Z,100939.19
2023-04-22T18:31:13.161Z,100948.91
2023-04-22T18:33:41.190Z,100952.06
2023-04-22T18:36:09.637Z,100944.22
2023-04-22T18:38:38.695Z,100948.94
2023-04-22T18:41:06.864Z,100952.22
2023-04-22T18:43:36.567Z,100951.94
2023-04-22T18:46:04.521Z,100942.72
2023-04-22T18:48:32.465Z,100953.63
2023-04-22T18:51:00.614Z,100947.91
2023-04-22T18:53:28.574Z,100942.47
2023-04-22T18:55:56.564Z,100941.63
2023-04-22T18:58:24.462Z,100943.75
2023-04-22T19:00:53.968Z,100958.69
2023-04-22T19:03:22.223Z,100964.47
2023-04-22T19:05:50.195Z,100960.41
2023-04-22T19:08:18.065Z,100959.13
2023-04-22T19:10:45.997Z,100955.44
2023-04-22T19:13:28.691Z,100954.66
2023-04-22T19:15:58.946Z,100948.25
2023-04-22T19:18:27.223Z,100954.00
2023-04-22T19:20:57.729Z,100946.13
2023-04-22T19:23:25.468Z,100955.16
2023-04-22T19:25:53.336Z,100958.97
2023-04-22T19:28:21.247Z,100950.38
2023-04-22T19:30:49.243Z,100954.66
2023-04-22T19:33:18.641Z,100953.00
2023-04-22T19:35:46.754Z,100955.88
2023-04-22T19:38:18.975Z,100954.47
2023-04-22T19:40:47.424Z,100948.84
2023-04-22T19:43:17.139Z,100952.09
2023-04-22T19:45:45.060Z,100944.22
2023-04-22T19:48:13.473Z,100938.63
2023-04-22T19:50:44.957Z,100937.66
2023-04-22T19:53:13.833Z,100935.88
2023-04-22T19:55:44.042Z,100928.09
2023-04-22T19:58:12.335Z,100928.81
2023-04-22T20:00:40.524Z,100927.25
2023-04-22T20:03:10.077Z,100931.19
2023-04-22T20:05:38.676Z,100926.28
2023-04-22T20:08:09.380Z,100923.91
2023-04-22T20:10:37.778Z,100926.44
2023-04-22T20:13:06.209Z,100922.34
2023-04-22T20:15:34.287Z,100921.06
2023-04-22T20:18:02.505Z,100921.91
2023-04-22T20:20:30.924Z,100920.25
2023-04-22T20:23:04.138Z,100918.09
2023-04-22T20:25:35.072Z,100919.38
2023-04-22T20:28:03.820Z,100916.06
2023-04-22T20:30:32.023Z,100914.34
2023-04-22T20:33:00.259Z,100908.53
2023-04-22T20:35:28.779Z,100903.41
2023-04-22T20:38:00.288Z,100909.00
2023-04-22T20:40:40.412Z,100905.41
2023-04-22T20:43:13.005Z,100908.41
2023-04-22T20:45:41.003Z,100905.50
2023-04-22T20:48:09.286Z,100901.34
2023-04-22T20:50:40.550Z,100905.03
2023-04-22T20:53:08.539Z,100908.38
2023-04-22T20:55:37.285Z,100909.28
2023-04-22T20:58:05.488Z,100911.41
2023-04-22T21:00:35.423Z,100906.63
2023-04-22T21:03:05.479Z,100902.22
2023-04-22T21:05:45.944Z,100900.69
2023-04-22T21:08:22.801Z,100893.75
2023-04-22T21:10:52.337Z,100878.47
2023-04-22T21:13:21.196Z,100898.13
2023-04-22T21:15:57.272Z,100885.59
2023-04-22T21:18:27.029Z,100905.94
2023-04-22T21:20:57.415Z,100903.88
2023-04-22T21:23:25.650Z,100904.69
2023-04-22T21:25:56.174Z,100899.31
2023-04-22T21:28:24.776Z,100900.38
2023-04-22T21:30:54.590Z,100907.13
2023-04-22T21:33:23.783Z,100907.78
2023-04-22T21:35:51.988Z,100900.56
2023-04-22T21:38:20.094Z,100904.00
2023-04-22T21:40:48.649Z,100901.00
2023-04-22T21:43:16.614Z,100906.34
2023-04-22T21:45:44.484Z,100893.47
2023-04-22T21:48:14.010Z,100894.44
2023-04-22T21:50:41.919Z,100896.53
2023-04-22T21:53:09.891Z,100904.28
2023-04-22T21:55:37.895Z,100903.31
2023-04-22T21:58:05.785Z,100906.16
2023-04-22T22:00:33.696Z,100906.38
2023-04-22T22:03:01.958Z,100910.84
2023-04-22T22:05:31.837Z,100907.22
2023-04-22T22:07:59.790Z,100901.56
2023-04-22T22:10:28.118Z,100899.47
2023-04-22T22:12:56.117Z,100899.41
2023-04-22T22:15:24.277Z,100894.50
2023-04-22T22:17:52.309Z,100893.22
2023-04-22T22:20:22.619Z,100892.84
2023-04-22T22:22:51.986Z,100889.78
2023-04-22T22:25:19.820Z,100896.63
2023-04-22T22:27:49.390Z,100896.94
2023-04-22T22:30:18.629Z,100900.28
2023-04-22T22:32:46.720Z,100894.69
2023-04-22T22:35:15.159Z,100888.09
2023-04-22T22:37:43.032Z,100891.56
2023-04-22T22:40:13.588Z,100887.25
2023-04-22T22:42:41.559Z,100889.47
2023-04-22T22:45:10.607Z,100890.69
2023-04-22T22:47:38.623Z,100889.31
2023-04-22T22:50:08.282Z,100898.53
2023-04-22T22:52:36.371Z,100884.59
2023-04-22T22:55:04.479Z,100899.63
2023-04-22T22:57:33.767Z,100893.16
2023-04-22T23:00:01.581Z,100887.56
2023-04-22T23:02:29.702Z,100887.16
2023-04-22T23:04:58.306Z,100882.31
2023-04-22T23:07:26.381Z,100890.25
2023-04-22T23:09:54.328Z,100888.84
2023-04-22T23:12:22.283Z,100882.16
2023-04-22T23:14:51.561Z,100885.63
2023-04-22T23:17:20.693Z,100878.81
2023-04-22T23:19:52.611Z,100885.16
2023-04-22T23:22:21.027Z,100879.28
2023-04-22T23:24:49.337Z,100888.38
2023-04-22T23:27:18.020Z,100885.84
2023-04-22T23:29:46.554Z,100882.50
2023-04-22T23:32:16.751Z,100887.81
2023-04-22T23:34:46.965Z,100886.34
2023-04-22T23:37:16.239Z,100886.53
2023-04-22T23:39:44.504Z,100874.34
2023-04-22T23:42:12.373Z,100878.09
2023-04-22T23:44:40.804Z,100879.28
2023-04-22T23:47:08.956Z,100876.97
2023-04-22T23:49:38.429Z,100875.38
2023-04-22T23:52:09.763Z,100872.13
2023-04-22T23:54:40.389Z,100869.06
2023-04-22T23:57:09.260Z,100866.94
2023-04-22T23:59:37.704Z,100862.09
